createdAt,value
2019-04-14T00:00:31.698Z,17.60
2019-04-14T00:03:10.876Z,18.80
2019-04-14T00:05:40.812Z,17.77
2019-04-14T00:08:11.067Z,18.87
2019-04-14T00:10:40.038Z,17.80
2019-04-14T00:13:09.007Z,16.95
2019-04-14T00:15:41.971Z,17.70
2019-04-14T00:18:08.135Z,19.77
2019-04-14T00:20:38.243Z,16.93
2019-04-14T00:23:06.798Z,17.60
2019-04-14T00:25:35.363Z,19.05
2019-04-14T00:28:09.643Z,15.08
2019-04-14T00:30:38.293Z,15.75
2019-04-14T00:33:11.196Z,16.52
2019-04-14T00:38:26.102Z,15.68
2019-04-14T00:41:05.152Z,15.70
2019-04-14T00:43:41.731Z,16.25
2019-04-14T00:46:14.738Z,15.20
2019-04-14T00:51:11.667Z,14.07
2019-04-14T00:53:40.505Z,15.93
2019-04-14T00:56:08.978Z,14.60
2019-04-14T00:58:37.419Z,16.87
2019-04-14T01:01:11.905Z,17.80
2019-04-14T01:04:05.632Z,16.20
2019-04-14T01:06:46.924Z,14.95
2019-04-14T01:09:17.262Z,17.92
2019-04-14T01:11:46.511Z,20.12
2019-04-14T01:14:15.086Z,15.23
2019-04-14T01:16:43.568Z,20.25
2019-04-14T01:19:13.910Z,19.60
2019-04-14T01:21:43.673Z,16.02
2019-04-14T01:24:12.158Z,17.50
2019-04-14T01:26:40.594Z,16.05
2019-04-14T01:29:10.081Z,18.70
2019-04-14T01:31:49.383Z,21.87
2019-04-14T01:34:17.848Z,18.05
2019-04-14T01:36:47.502Z,17.55
2019-04-14T01:39:17.551Z,18.67
2019-04-14T01:41:58.538Z,21.30
2019-04-14T01:44:27.073Z,19.12
2019-04-14T01:47:11.655Z,18.32
2019-04-14T01:49:40.186Z,20.92
2019-04-14T01:52:34.214Z,20.70
2019-04-14T01:55:20.806Z,19.57
2019-04-14T01:58:03.247Z,18.50
2019-04-14T02:00:45.276Z,21.05
2019-04-14T02:03:14.898Z,18.50
2019-04-14T02:05:43.601Z,21.75
2019-04-14T02:08:13.195Z,20.05
2019-04-14T02:10:43.360Z,17.10
2019-04-14T02:13:12.079Z,22.02
2019-04-14T02:15:40.515Z,22.40
2019-04-14T02:18:09.928Z,19.15
2019-04-14T02:20:38.418Z,22.70
2019-04-14T02:23:08.278Z,20.00
2019-04-14T02:25:38.214Z,20.45
2019-04-14T02:28:07.219Z,18.85
2019-04-14T02:30:44.197Z,18.62
2019-04-14T02:33:44.442Z,21.68
2019-04-14T02:36:10.434Z,18.67
2019-04-14T02:38:45.429Z,22.80
2019-04-14T02:43:51.112Z,18.23
2019-04-14T02:48:50.863Z,20.35
2019-04-14T02:51:04.244Z,18.05
2019-04-14T02:53:41.570Z,19.70
2019-04-14T02:56:07.711Z,19.00
2019-04-14T02:58:38.473Z,20.52
2019-04-14T03:01:08.125Z,19.73
2019-04-14T03:03:41.373Z,22.05
2019-04-14T03:08:52.092Z,19.60
2019-04-14T03:11:01.226Z,20.15
2019-04-14T03:13:35.998Z,25.17
2019-04-14T03:16:02.417Z,22.65
2019-04-14T03:18:39.421Z,22.25
2019-04-14T03:21:29.965Z,25.37
2019-04-14T03:23:59.020Z,25.10
2019-04-14T03:26:50.112Z,23.15
2019-04-14T03:29:26.748Z,23.70
2019-04-14T03:39:32.030Z,26.55
2019-04-14T03:42:01.028Z,25.90
2019-04-14T03:44:31.628Z,26.05
2019-04-14T03:47:03.534Z,23.50
2019-04-14T03:49:32.173Z,23.15
2019-04-14T03:51:57.225Z,28.90
2019-04-14T03:54:20.186Z,22.55
2019-04-14T03:56:47.144Z,24.82
2019-04-14T04:01:45.694Z,20.80
2019-04-14T04:04:14.397Z,23.70
2019-04-14T04:06:44.154Z,21.30
2019-04-14T04:09:30.038Z,24.87
2019-04-14T04:11:58.550Z,24.27
2019-04-14T04:14:27.152Z,21.23
2019-04-14T04:17:03.651Z,22.07
2019-04-14T04:19:38.230Z,21.40
2019-04-14T04:22:15.043Z,24.63
2019-04-14T04:24:52.155Z,21.40
2019-04-14T04:27:31.151Z,25.00
2019-04-14T04:30:01.668Z,22.17
2019-04-14T04:32:40.749Z,22.13
2019-04-14T04:35:10.873Z,23.10
2019-04-14T04:37:41.168Z,25.48
2019-04-14T04:40:20.151Z,23.38
2019-04-14T04:42:48.612Z,24.67
2019-04-14T04:45:17.120Z,22.77
2019-04-14T04:47:47.002Z,24.98
2019-04-14T04:50:17.069Z,24.37
2019-04-14T04:52:45.661Z,25.32
2019-04-14T04:55:15.519Z,28.40
2019-04-14T04:57:52.392Z,26.93
2019-04-14T05:00:22.094Z,26.27
2019-04-14T05:02:50.636Z,23.10
2019-04-14T05:05:55.953Z,23.05
2019-04-14T05:08:32.682Z,23.95
2019-04-14T05:11:03.256Z,24.05
2019-04-14T05:13:33.585Z,25.80
2019-04-14T05:16:02.197Z,27.07
2019-04-14T05:18:31.958Z,25.92
2019-04-14T05:21:01.659Z,24.77
2019-04-14T05:23:30.259Z,22.00
2019-04-14T05:25:58.692Z,23.42
2019-04-14T05:28:27.184Z,23.87
2019-04-14T05:30:56.767Z,25.60
2019-04-14T05:33:29.266Z,26.30
2019-04-14T05:35:57.747Z,22.95
2019-04-14T05:38:29.076Z,23.25
2019-04-14T05:40:56.620Z,22.95
2019-04-14T05:43:34.543Z,20.12
2019-04-14T05:45:56.564Z,24.75
2019-04-14T05:48:25.217Z,25.30
2019-04-14T05:50:53.610Z,23.75
2019-04-14T05:53:22.086Z,25.12
2019-04-14T05:55:50.514Z,23.50
2019-04-14T05:58:18.992Z,24.55
2019-04-14T06:00:48.204Z,21.17
2019-04-14T06:03:16.993Z,24.15
2019-04-14T06:05:45.467Z,26.07
2019-04-14T06:08:14.263Z,30.30
2019-04-14T06:10:43.051Z,25.05
2019-04-14T06:13:13.465Z,22.82
2019-04-14T06:15:41.604Z,22.48
2019-04-14T06:18:10.371Z,23.65
2019-04-14T06:20:38.841Z,23.18
2019-04-14T06:23:07.265Z,23.30
2019-04-14T06:25:36.482Z,25.23
2019-04-14T06:28:05.198Z,25.35
2019-04-14T06:30:37.199Z,20.45
2019-04-14T06:33:07.314Z,22.53
2019-04-14T06:35:37.391Z,23.67
2019-04-14T06:38:07.503Z,23.00
2019-04-14T06:40:37.609Z,23.35
2019-04-14T06:43:06.097Z,22.07
2019-04-14T06:45:34.544Z,23.30
2019-04-14T06:48:03.156Z,22.62
2019-04-14T06:50:31.957Z,23.10
2019-04-14T06:53:00.433Z,21.97
2019-04-14T06:55:28.907Z,19.10
2019-04-14T06:57:57.670Z,20.08
2019-04-14T07:00:26.144Z,23.62
2019-04-14T07:03:11.735Z,23.98
2019-04-14T07:05:55.153Z,21.87
2019-04-14T07:08:30.003Z,17.57
2019-04-14T07:10:58.569Z,19.05
2019-04-14T07:13:33.075Z,19.27
2019-04-14T07:16:01.930Z,19.90
2019-04-14T07:18:30.366Z,17.92
2019-04-14T07:20:58.796Z,21.95
2019-04-14T07:23:27.264Z,18.77
2019-04-14T07:25:55.706Z,22.30
2019-04-14T07:28:24.651Z,19.77
2019-04-14T07:31:11.456Z,21.45
2019-04-14T07:33:47.261Z,18.37
2019-04-14T07:36:33.612Z,21.33
2019-04-14T07:39:19.991Z,20.25
2019-04-14T07:41:53.081Z,21.00
2019-04-14T07:44:25.227Z,21.73
2019-04-14T07:47:10.939Z,19.60
2019-04-14T07:52:26.181Z,17.57
2019-04-14T07:54:56.234Z,16.40
2019-04-14T07:57:38.442Z,19.80
2019-04-14T08:00:12.285Z,19.87
2019-04-14T08:02:45.340Z,19.50
2019-04-14T08:05:18.505Z,17.73
2019-04-14T08:07:47.861Z,18.25
2019-04-14T08:10:16.582Z,17.48
2019-04-14T08:12:47.872Z,19.82
2019-04-14T08:15:16.750Z,19.42
2019-04-14T08:17:45.156Z,20.15
2019-04-14T08:20:26.697Z,20.52
2019-04-14T08:22:47.161Z,18.60
2019-04-14T08:25:16.022Z,19.42
2019-04-14T08:27:44.464Z,17.90
2019-04-14T08:30:13.225Z,20.23
2019-04-14T08:32:41.662Z,17.60
2019-04-14T08:35:10.115Z,18.00
2019-04-14T08:37:38.961Z,18.32
2019-04-14T08:40:07.660Z,17.07
2019-04-14T08:42:53.943Z,18.25
2019-04-14T08:45:41.203Z,17.95
2019-04-14T08:48:18.715Z,17.50
2019-04-14T08:50:51.546Z,19.02
2019-04-14T08:53:21.618Z,19.42
2019-04-14T08:55:57.182Z,17.15
2019-04-14T08:58:27.266Z,19.40
2019-04-14T09:01:03.366Z,19.05
2019-04-14T09:03:39.256Z,19.70
2019-04-14T09:06:09.659Z,18.20
2019-04-14T09:08:52.159Z,16.32
2019-04-14T09:11:28.597Z,16.67
2019-04-14T09:13:57.335Z,16.97
2019-04-14T09:16:26.723Z,15.45
2019-04-14T09:19:06.905Z,21.23
2019-04-14T09:21:25.243Z,15.55
2019-04-14T09:23:53.790Z,18.87
2019-04-14T09:26:22.230Z,15.55
2019-04-14T09:28:51.005Z,17.12
2019-04-14T09:31:19.745Z,18.85
2019-04-14T09:33:50.852Z,17.27
2019-04-14T09:36:19.299Z,20.90
2019-04-14T09:38:47.703Z,18.00
2019-04-14T09:41:16.141Z,16.15
2019-04-14T09:43:44.970Z,15.88
2019-04-14T09:46:13.427Z,20.32
2019-04-14T09:48:43.072Z,16.52
2019-04-14T09:51:11.700Z,17.67
2019-04-14T09:53:40.110Z,22.00
2019-04-14T09:56:08.588Z,20.62
2019-04-14T09:58:37.181Z,20.77
2019-04-14T10:01:05.606Z,19.07
2019-04-14T10:03:34.335Z,16.90
2019-04-14T10:06:02.874Z,18.92
2019-04-14T10:08:31.417Z,16.70
2019-04-14T10:11:00.101Z,15.98
2019-04-14T10:13:28.519Z,17.35
2019-04-14T10:15:57.157Z,17.50
2019-04-14T10:18:25.641Z,14.70
2019-04-14T10:20:54.234Z,16.25
2019-04-14T10:23:22.840Z,22.00
2019-04-14T10:25:51.293Z,17.20
2019-04-14T10:28:19.740Z,15.90
2019-04-14T10:30:48.681Z,15.32
2019-04-14T10:33:17.106Z,15.95
2019-04-14T10:35:45.743Z,16.30
2019-04-14T10:38:14.322Z,15.80
2019-04-14T10:40:43.063Z,13.65
2019-04-14T10:43:11.904Z,15.43
2019-04-14T10:45:40.325Z,16.73
2019-04-14T10:48:08.766Z,16.05
2019-04-14T10:50:37.503Z,16.32
2019-04-14T10:53:06.230Z,15.15
2019-04-14T10:55:34.966Z,14.15
2019-04-14T10:58:03.383Z,14.87
2019-04-14T11:00:31.862Z,13.38
2019-04-14T11:03:00.321Z,14.83
2019-04-14T11:05:30.398Z,13.35
2019-04-14T11:07:58.812Z,16.35
2019-04-14T11:10:27.624Z,14.60
2019-04-14T11:12:56.351Z,14.43
2019-04-14T11:15:24.897Z,16.27
2019-04-14T11:17:53.458Z,14.05
2019-04-14T11:20:23.110Z,15.93
2019-04-14T11:23:02.746Z,16.23
2019-04-14T11:25:22.371Z,13.88
2019-04-14T11:27:50.819Z,13.85
2019-04-14T11:30:23.622Z,19.02
2019-04-14T11:35:31.639Z,12.58
2019-04-14T11:40:42.846Z,14.53
2019-04-14T11:43:11.296Z,19.52
2019-04-14T11:45:40.123Z,19.50
2019-04-14T11:48:08.686Z,14.90
2019-04-14T11:50:37.939Z,14.18
2019-04-14T11:53:06.363Z,15.53
2019-04-14T11:55:35.173Z,14.78
2019-04-14T11:58:03.588Z,17.62
2019-04-14T12:00:39.804Z,17.25
2019-04-14T12:03:25.911Z,16.97
2019-04-14T12:06:12.210Z,15.32
2019-04-14T12:08:45.435Z,14.85
2019-04-14T12:11:12.734Z,18.48
2019-04-14T12:13:41.827Z,16.37
2019-04-14T12:16:10.868Z,15.10
2019-04-14T12:18:39.428Z,21.68
2019-04-14T12:21:08.484Z,13.88
2019-04-14T12:23:37.205Z,17.27
2019-04-14T12:26:06.088Z,16.40
2019-04-14T12:28:34.690Z,16.70
2019-04-14T12:31:04.082Z,15.98
2019-04-14T12:33:32.613Z,13.80
2019-04-14T12:36:01.170Z,18.30
2019-04-14T12:38:29.975Z,18.65
2019-04-14T12:41:00.393Z,14.95
2019-04-14T12:43:46.710Z,19.12
2019-04-14T12:46:28.859Z,16.75
2019-04-14T12:49:02.238Z,16.67
2019-04-14T12:51:35.284Z,14.83
2019-04-14T12:54:04.256Z,16.55
2019-04-14T12:56:32.679Z,16.32
2019-04-14T12:59:03.152Z,15.18
2019-04-14T13:01:48.168Z,14.73
2019-04-14T13:04:17.046Z,15.65
2019-04-14T13:06:45.641Z,15.18
2019-04-14T13:09:14.626Z,14.50
2019-04-14T13:11:43.591Z,20.32
2019-04-14T13:14:12.322Z,17.40
2019-04-14T13:16:40.907Z,18.07
2019-04-14T13:19:09.377Z,17.17
2019-04-14T13:21:40.398Z,14.75
2019-04-14T13:24:08.087Z,14.78
2019-04-14T13:26:36.580Z,15.08
2019-04-14T13:29:05.111Z,15.95
2019-04-14T13:31:33.598Z,15.93
2019-04-14T13:34:02.150Z,17.67
2019-04-14T13:36:30.540Z,16.42
2019-04-14T13:38:59.078Z,18.30
2019-04-14T13:41:27.726Z,16.07
2019-04-14T13:43:56.144Z,17.10
2019-04-14T13:46:24.875Z,18.10
2019-04-14T13:48:53.699Z,14.68
2019-04-14T13:51:22.153Z,14.93
2019-04-14T13:53:50.570Z,13.75
2019-04-14T13:56:19.055Z,15.10
2019-04-14T13:58:47.580Z,13.50
2019-04-14T14:01:16.515Z,15.38
2019-04-14T14:03:45.247Z,16.15
2019-04-14T14:06:13.963Z,16.15
2019-04-14T14:08:42.483Z,16.07
2019-04-14T14:11:12.534Z,14.25
2019-04-14T14:13:48.412Z,17.67
2019-04-14T14:16:27.511Z,15.50
2019-04-14T14:19:00.551Z,16.97
2019-04-14T14:21:36.415Z,15.03
2019-04-14T14:24:22.510Z,14.90
2019-04-14T14:26:55.584Z,16.30
2019-04-14T14:29:24.281Z,15.28
2019-04-14T14:31:53.091Z,15.05
2019-04-14T14:34:21.602Z,16.05
2019-04-14T14:36:50.048Z,13.90
2019-04-14T14:39:20.348Z,16.70
2019-04-14T14:41:48.793Z,17.00
2019-04-14T14:44:17.508Z,15.38
2019-04-14T14:46:57.108Z,16.20
2019-04-14T14:49:29.763Z,18.52
2019-04-14T14:51:59.868Z,16.40
2019-04-14T14:54:28.290Z,17.25
2019-04-14T14:56:57.030Z,17.62
2019-04-14T14:59:25.979Z,14.00
2019-04-14T15:01:54.460Z,16.12
2019-04-14T15:04:22.916Z,14.95
2019-04-14T15:06:51.634Z,13.65
2019-04-14T15:09:20.090Z,14.58
2019-04-14T15:11:48.791Z,18.20
2019-04-14T15:14:17.699Z,16.97
2019-04-14T15:16:46.474Z,14.18
2019-04-14T15:19:15.071Z,18.00
2019-04-14T15:21:43.505Z,17.25
2019-04-14T15:24:11.931Z,15.50
2019-04-14T15:26:40.449Z,16.65
2019-04-14T15:29:09.267Z,20.57
2019-04-14T15:31:37.745Z,15.15
2019-04-14T15:34:06.173Z,14.87
2019-04-14T15:36:34.939Z,15.98
2019-04-14T15:39:05.534Z,18.37
2019-04-14T15:41:34.076Z,16.05
2019-04-14T15:44:02.535Z,15.63
2019-04-14T15:46:30.941Z,15.60
2019-04-14T15:48:59.771Z,16.82
2019-04-14T15:51:28.236Z,16.82
2019-04-14T15:53:56.699Z,16.25
2019-04-14T15:56:43.088Z,17.65
2019-04-14T15:59:31.683Z,16.15
2019-04-14T16:02:13.757Z,19.30
2019-04-14T16:04:46.909Z,17.37
2019-04-14T16:07:20.221Z,17.35
2019-04-14T16:09:50.422Z,15.83
2019-04-14T16:12:21.567Z,16.97
2019-04-14T16:14:57.903Z,16.25
2019-04-14T16:17:30.921Z,16.20
2019-04-14T16:20:09.546Z,13.45
2019-04-14T16:22:39.114Z,14.83
2019-04-14T16:25:07.590Z,14.18
2019-04-14T16:27:37.682Z,16.55
2019-04-14T16:30:22.842Z,13.50
2019-04-14T16:33:08.136Z,13.70
2019-04-14T16:35:38.222Z,11.20
2019-04-14T16:38:06.669Z,13.70
2019-04-14T16:40:37.026Z,12.28
2019-04-14T16:43:05.435Z,12.63
2019-04-14T16:45:34.247Z,12.37
2019-04-14T16:48:02.754Z,12.45
2019-04-14T16:50:31.203Z,15.88
2019-04-14T16:53:10.814Z,13.75
2019-04-14T16:55:46.619Z,14.70
2019-04-14T16:58:16.692Z,13.55
2019-04-14T17:00:49.514Z,11.93
2019-04-14T17:03:18.202Z,12.65
2019-04-14T17:05:46.650Z,10.90
2019-04-14T17:08:15.239Z,13.05
2019-04-14T17:10:43.643Z,11.22
2019-04-14T17:13:12.109Z,14.38
2019-04-14T17:15:42.701Z,12.05
2019-04-14T17:18:15.355Z,14.65
2019-04-14T17:20:48.065Z,13.72
2019-04-14T17:23:36.013Z,11.63
2019-04-14T17:26:08.980Z,10.43
2019-04-14T17:28:57.022Z,14.50
2019-04-14T17:31:42.132Z,11.97
2019-04-14T17:34:15.418Z,13.48
2019-04-14T17:37:01.790Z,11.73
2019-04-14T17:39:32.145Z,10.70
2019-04-14T17:42:05.288Z,12.45
2019-04-14T17:44:35.828Z,11.70
2019-04-14T17:47:15.042Z,11.28
2019-04-14T17:49:51.204Z,11.57
2019-04-14T17:52:30.306Z,11.05
2019-04-14T17:55:06.104Z,9.05
2019-04-14T17:57:48.174Z,11.03
2019-04-14T18:00:27.963Z,12.60
2019-04-14T18:03:06.800Z,11.00
2019-04-14T18:05:36.868Z,12.18
2019-04-14T18:08:07.498Z,12.90
2019-04-14T18:10:53.759Z,10.38
2019-04-14T18:13:29.759Z,11.63
2019-04-14T18:15:59.838Z,12.53
2019-04-14T18:18:47.948Z,11.45
2019-04-14T18:21:16.368Z,12.82
2019-04-14T18:23:44.812Z,11.35
2019-04-14T18:26:13.221Z,10.38
2019-04-14T18:28:46.285Z,13.22
2019-04-14T18:31:19.314Z,12.90
2019-04-14T18:33:49.798Z,12.23
2019-04-14T18:36:22.571Z,12.93
2019-04-14T18:39:07.792Z,14.68
2019-04-14T18:41:47.138Z,12.30
2019-04-14T18:44:19.643Z,11.65
2019-04-14T18:47:06.393Z,15.70
2019-04-14T18:49:36.898Z,10.82
2019-04-14T18:52:10.293Z,11.90
2019-04-14T18:54:54.064Z,12.73
2019-04-14T18:57:15.498Z,12.18
2019-04-14T18:59:48.269Z,12.25
2019-04-14T19:02:17.530Z,9.53
2019-04-14T19:04:45.947Z,10.53
2019-04-14T19:07:14.682Z,13.10
2019-04-14T19:09:43.198Z,13.85
2019-04-14T19:12:19.001Z,13.05
2019-04-14T19:14:49.633Z,16.05
2019-04-14T19:17:25.788Z,16.70
2019-04-14T19:20:02.108Z,14.83
2019-04-14T19:22:26.220Z,17.62
2019-04-14T19:25:06.983Z,16.67
2019-04-14T19:27:24.811Z,18.62
2019-04-14T19:29:53.306Z,19.25
2019-04-14T19:32:22.017Z,15.83
2019-04-14T19:34:50.749Z,15.63
2019-04-14T19:37:19.161Z,15.65
2019-04-14T19:39:47.613Z,18.17
2019-04-14T19:42:16.021Z,18.35
2019-04-14T19:44:44.471Z,15.20
2019-04-14T19:47:12.913Z,15.80
2019-04-14T19:49:44.386Z,15.78
2019-04-14T19:52:19.612Z,19.62
2019-04-14T19:54:48.062Z,20.68
2019-04-14T19:57:16.471Z,19.45
2019-04-14T19:59:45.207Z,16.45
2019-04-14T20:02:13.663Z,16.48
2019-04-14T20:04:42.368Z,16.85
2019-04-14T20:07:10.803Z,17.57
2019-04-14T20:09:39.234Z,17.77
2019-04-14T20:12:07.716Z,15.93
2019-04-14T20:14:36.139Z,16.07
2019-04-14T20:17:24.143Z,17.75
2019-04-14T20:19:56.770Z,16.50
2019-04-14T20:22:32.823Z,17.45
2019-04-14T20:25:33.278Z,16.20
2019-04-14T20:28:04.706Z,15.80
2019-04-14T20:30:37.598Z,17.92
2019-04-14T20:35:34.875Z,13.78
2019-04-14T20:38:03.432Z,14.47
2019-04-14T20:40:31.846Z,12.15
2019-04-14T20:43:00.704Z,14.28
2019-04-14T20:45:29.200Z,15.53
2019-04-14T20:47:57.604Z,13.45
2019-04-14T20:50:26.129Z,15.85
2019-04-14T20:52:54.952Z,11.63
2019-04-14T20:55:23.387Z,15.15
2019-04-14T20:57:52.090Z,14.68
2019-04-14T21:00:21.308Z,14.20
2019-04-14T21:02:51.358Z,13.75
2019-04-14T21:05:21.446Z,13.83
2019-04-14T21:08:07.907Z,12.85
2019-04-14T21:10:56.403Z,14.90
2019-04-14T21:13:32.644Z,12.65
2019-04-14T21:16:12.563Z,13.40
2019-04-14T21:18:34.759Z,12.50
2019-04-14T21:21:04.852Z,16.60
2019-04-14T21:23:43.883Z,13.88
2019-04-14T21:26:30.217Z,13.83
2019-04-14T21:29:00.251Z,14.90
2019-04-14T21:31:30.352Z,18.02
2019-04-14T21:34:16.674Z,13.43
2019-04-14T21:36:52.397Z,16.02
2019-04-14T21:39:40.597Z,17.60
2019-04-14T21:42:08.987Z,17.65
2019-04-14T21:44:37.452Z,14.05
2019-04-14T21:47:06.000Z,14.60
2019-04-14T21:49:34.443Z,16.27
2019-04-14T21:52:07.561Z,17.15
2019-04-14T21:54:35.989Z,17.80
2019-04-14T21:57:06.368Z,17.02
2019-04-14T21:59:52.633Z,18.52
2019-04-14T22:02:38.878Z,16.12
2019-04-14T22:05:20.815Z,16.80
2019-04-14T22:07:54.007Z,17.27
2019-04-14T22:10:24.076Z,15.08
2019-04-14T22:12:52.579Z,15.28
2019-04-14T22:15:21.086Z,17.52
2019-04-14T22:17:49.824Z,14.47
2019-04-14T22:20:18.951Z,16.52
2019-04-14T22:22:47.410Z,17.70
2019-04-14T22:25:15.986Z,15.55
2019-04-14T22:27:44.430Z,14.53
2019-04-14T22:30:13.242Z,17.15
2019-04-14T22:32:41.966Z,17.27
2019-04-14T22:35:10.749Z,17.52
2019-04-14T22:37:41.213Z,15.90
2019-04-14T22:40:09.770Z,19.05
2019-04-14T22:42:38.498Z,18.40
2019-04-14T22:45:07.123Z,15.40
2019-04-14T22:47:35.577Z,19.65
2019-04-14T22:50:05.266Z,19.48
2019-04-14T22:52:33.642Z,18.42
2019-04-14T22:55:02.457Z,17.45
2019-04-14T22:57:31.164Z,21.40
2019-04-14T22:59:59.598Z,19.48
2019-04-14T23:02:29.692Z,18.48
2019-04-14T23:05:00.126Z,22.10
2019-04-14T23:07:30.205Z,21.07
2019-04-14T23:10:02.745Z,17.30
2019-04-14T23:12:38.433Z,19.52
2019-04-14T23:15:14.882Z,21.07
2019-04-14T23:17:44.934Z,22.25
2019-04-14T23:20:15.542Z,19.50
2019-04-14T23:22:48.255Z,23.20
2019-04-14T23:25:16.728Z,22.15
2019-04-14T23:27:45.164Z,21.75
2019-04-14T23:30:15.591Z,24.00
2019-04-14T23:32:44.503Z,23.98
2019-04-14T23:35:13.334Z,25.12
2019-04-14T23:37:41.835Z,24.52
2019-04-14T23:40:12.352Z,26.48
2019-04-14T23:42:40.727Z,24.95
2019-04-14T23:45:09.190Z,26.90
2019-04-14T23:47:37.619Z,26.30
2019-04-14T23:50:07.339Z,28.62
2019-04-14T23:52:35.790Z,26.97
2019-04-14T23:55:07.877Z,29.18
2019-04-14T23:57:36.296Z,26.20
